sensor_id;sensor_type;location;lat;lon;timestamp;temperature;humidity
45383;DHT22;42455;51.660;5.824;2024-01-11T00:02:49;-1.1;74.0
45383;DHT22;42455;51.660;5.824;2024-01-11T00:07:55;-1.1;74.5
45383;DHT22;42455;51.660;5.824;2024-01-11T00:13:01;-1.2;74.5
45383;DHT22;42455;51.660;5.824;2024-01-11T00:18:07;0.0;0.0
45383;DHT22;42455;51.660;5.824;2024-01-11T00:23:14;-1.3;74.5
45383;DHT22;42455;51.660;5.824;2024-01-11T00:28:20;-1.3;74.5
45383;DHT22;42455;51.660;5.824;2024-01-11T00:33:26;-1.3;74.5
45383;DHT22;42455;51.660;5.824;2024-01-11T00:38:32;-1.3;74.5
45383;DHT22;42455;51.660;5.824;2024-01-11T00:43:38;-1.4;74.5
45383;DHT22;42455;51.660;5.824;2024-01-11T00:48:45;-1.4;75.0
45383;DHT22;42455;51.660;5.824;2024-01-11T00:53:51;-1.4;75.0
45383;DHT22;42455;51.660;5.824;2024-01-11T00:58:57;-1.4;75.0
45383;DHT22;42455;51.660;5.824;2024-01-11T01:04:03;-1.4;75.0
45383;DHT22;42455;51.660;5.824;2024-01-11T01:09:09;-1.4;75.0
45383;DHT22;42455;51.660;5.824;2024-01-11T01:14:15;-1.5;75.0
45383;DHT22;42455;51.660;5.824;2024-01-11T01:19:21;-1.5;75.0
45383;DHT22;42455;51.660;5.824;2024-01-11T01:24:27;-1.5;75.5
45383;DHT22;42455;51.660;5.824;2024-01-11T01:29:33;-1.6;75.5
45383;DHT22;42455;51.660;5.824;2024-01-11T01:34:40;-1.6;75.5
45383;DHT22;42455;51.660;5.824;2024-01-11T01:39:46;-1.6;75.5
45383;DHT22;42455;51.660;5.824;2024-01-11T01:44:52;-1.6;75.5
45383;DHT22;42455;51.660;5.824;2024-01-11T01:49:58;-1.6;75.5
45383;DHT22;42455;51.660;5.824;2024-01-11T01:55:06;-1.6;75.5
45383;DHT22;42455;51.660;5.824;2024-01-11T02:00:11;-1.6;75.5
45383;DHT22;42455;51.660;5.824;2024-01-11T02:05:17;-1.6;75.5
45383;DHT22;42455;51.660;5.824;2024-01-11T02:10:24;-1.6;75.5
45383;DHT22;42455;51.660;5.824;2024-01-11T02:16:36;-1.7;75.5
45383;DHT22;42455;51.660;5.824;2024-01-11T02:20:35;-1.7;75.5
45383;DHT22;42455;51.660;5.824;2024-01-11T02:25:42;-1.8;75.5
45383;DHT22;42455;51.660;5.824;2024-01-11T02:30:48;-1.8;75.5
45383;DHT22;42455;51.660;5.824;2024-01-11T02:35:54;-1.9;75.5
45383;DHT22;42455;51.660;5.824;2024-01-11T02:46:07;-1.9;76.0
45383;DHT22;42455;51.660;5.824;2024-01-11T02:51:13;-2.0;76.0
45383;DHT22;42455;51.660;5.824;2024-01-11T03:01:25;-2.0;76.0
45383;DHT22;42455;51.660;5.824;2024-01-11T03:06:31;-2.0;76.0
45383;DHT22;42455;51.660;5.824;2024-01-11T03:13:05;-2.1;76.0
45383;DHT22;42455;51.660;5.824;2024-01-11T03:21:50;-2.2;76.0
45383;DHT22;42455;51.660;5.824;2024-01-11T03:26:56;-2.3;76.0
45383;DHT22;42455;51.660;5.824;2024-01-11T03:32:03;-2.3;76.0
45383;DHT22;42455;51.660;5.824;2024-01-11T03:37:09;-2.3;76.5
45383;DHT22;42455;51.660;5.824;2024-01-11T03:42:15;-2.3;76.5
45383;DHT22;42455;51.660;5.824;2024-01-11T03:48:53;-2.4;76.5
45383;DHT22;42455;51.660;5.824;2024-01-11T03:52:27;-2.4;76.5
45383;DHT22;42455;51.660;5.824;2024-01-11T03:57:34;-2.4;76.5
45383;DHT22;42455;51.660;5.824;2024-01-11T04:02:40;-2.4;76.5
45383;DHT22;42455;51.660;5.824;2024-01-11T04:07:46;-2.5;76.5
45383;DHT22;42455;51.660;5.824;2024-01-11T04:12:52;-2.5;76.5
45383;DHT22;42455;51.660;5.824;2024-01-11T04:17:58;-2.6;76.5
45383;DHT22;42455;51.660;5.824;2024-01-11T04:23:05;-2.6;76.5
45383;DHT22;42455;51.660;5.824;2024-01-11T04:28:11;-2.6;76.5
45383;DHT22;42455;51.660;5.824;2024-01-11T04:33:17;-2.6;77.0
45383;DHT22;42455;51.660;5.824;2024-01-11T04:38:23;-2.6;77.0
45383;DHT22;42455;51.660;5.824;2024-01-11T04:43:29;-2.6;77.0
45383;DHT22;42455;51.660;5.824;2024-01-11T04:48:36;-2.6;77.0
45383;DHT22;42455;51.660;5.824;2024-01-11T04:53:43;-2.6;77.0
45383;DHT22;42455;51.660;5.824;2024-01-11T04:58:48;-2.7;77.0
45383;DHT22;42455;51.660;5.824;2024-01-11T05:03:54;-2.7;77.0
45383;DHT22;42455;51.660;5.824;2024-01-11T05:09:01;-2.7;77.0
45383;DHT22;42455;51.660;5.824;2024-01-11T05:14:07;-2.7;77.5
45383;DHT22;42455;51.660;5.824;2024-01-11T05:19:13;-2.7;77.5
45383;DHT22;42455;51.660;5.824;2024-01-11T05:24:19;-2.7;77.5
45383;DHT22;42455;51.660;5.824;2024-01-11T05:29:25;-2.7;77.5
45383;DHT22;42455;51.660;5.824;2024-01-11T05:34:32;-2.7;77.5
45383;DHT22;42455;51.660;5.824;2024-01-11T05:39:38;-2.7;77.5
45383;DHT22;42455;51.660;5.824;2024-01-11T05:44:44;-2.7;78.0
45383;DHT22;42455;51.660;5.824;2024-01-11T05:49:50;-2.7;77.5
45383;DHT22;42455;51.660;5.824;2024-01-11T05:54:56;-2.7;77.5
45383;DHT22;42455;51.660;5.824;2024-01-11T06:00:03;-2.7;77.5
45383;DHT22;42455;51.660;5.824;2024-01-11T06:05:09;-2.8;78.0
45383;DHT22;42455;51.660;5.824;2024-01-11T06:10:15;-2.8;78.0
45383;DHT22;42455;51.660;5.824;2024-01-11T06:15:21;-2.8;78.0
45383;DHT22;42455;51.660;5.824;2024-01-11T06:20:27;-2.8;78.0
45383;DHT22;42455;51.660;5.824;2024-01-11T06:25:34;-2.8;78.0
45383;DHT22;42455;51.660;5.824;2024-01-11T06:30:40;-2.8;78.0
45383;DHT22;42455;51.660;5.824;2024-01-11T06:35:45;-2.8;78.0
45383;DHT22;42455;51.660;5.824;2024-01-11T06:40:51;-2.9;78.0
45383;DHT22;42455;51.660;5.824;2024-01-11T06:46:01;-2.9;78.0
45383;DHT22;42455;51.660;5.824;2024-01-11T06:51:04;-3.0;78.0
45383;DHT22;42455;51.660;5.824;2024-01-11T06:56:15;-3.0;78.0
45383;DHT22;42455;51.660;5.824;2024-01-11T07:01:17;-3.0;78.0
45383;DHT22;42455;51.660;5.824;2024-01-11T07:06:21;-3.1;78.0
45383;DHT22;42455;51.660;5.824;2024-01-11T07:11:27;-3.1;78.0
45383;DHT22;42455;51.660;5.824;2024-01-11T07:16:34;-3.1;78.5
45383;DHT22;42455;51.660;5.824;2024-01-11T07:21:41;-3.1;78.5
45383;DHT22;42455;51.660;5.824;2024-01-11T07:26:46;-3.1;78.5
45383;DHT22;42455;51.660;5.824;2024-01-11T07:31:52;-3.1;78.5
45383;DHT22;42455;51.660;5.824;2024-01-11T07:36:59;-3.1;78.5
45383;DHT22;42455;51.660;5.824;2024-01-11T07:42:05;-3.1;78.5
45383;DHT22;42455;51.660;5.824;2024-01-11T07:47:11;-3.1;78.5
45383;DHT22;42455;51.660;5.824;2024-01-11T07:52:18;-3.1;79.0
45383;DHT22;42455;51.660;5.824;2024-01-11T07:57:23;-3.1;79.0
45383;DHT22;42455;51.660;5.824;2024-01-11T08:02:30;-3.1;79.0
45383;DHT22;42455;51.660;5.824;2024-01-11T08:07:37;-3.1;79.0
45383;DHT22;42455;51.660;5.824;2024-01-11T08:12:42;-3.0;79.0
45383;DHT22;42455;51.660;5.824;2024-01-11T08:17:48;-3.0;79.5
45383;DHT22;42455;51.660;5.824;2024-01-11T08:22:54;-3.0;79.0
45383;DHT22;42455;51.660;5.824;2024-01-11T08:28:01;-3.0;79.5
45383;DHT22;42455;51.660;5.824;2024-01-11T08:33:07;-3.0;79.5
45383;DHT22;42455;51.660;5.824;2024-01-11T08:38:13;-2.9;79.5
45383;DHT22;42455;51.660;5.824;2024-01-11T08:43:20;-2.9;80.0
45383;DHT22;42455;51.660;5.824;2024-01-11T08:48:26;-2.8;80.0
45383;DHT22;42455;51.660;5.824;2024-01-11T08:53:32;-2.8;80.5
45383;DHT22;42455;51.660;5.824;2024-01-11T08:58:40;-2.7;80.5
45383;DHT22;42455;51.660;5.824;2024-01-11T09:03:44;-2.6;80.5
45383;DHT22;42455;51.660;5.824;2024-01-11T09:08:50;-2.5;80.5
45383;DHT22;42455;51.660;5.824;2024-01-11T09:13:57;-2.4;80.5
45383;DHT22;42455;51.660;5.824;2024-01-11T09:19:03;-2.3;81.0
45383;DHT22;42455;51.660;5.824;2024-01-11T09:24:09;-2.3;81.0
45383;DHT22;42455;51.660;5.824;2024-01-11T09:29:15;-2.1;81.0
45383;DHT22;42455;51.660;5.824;2024-01-11T09:34:21;-2.0;81.5
45383;DHT22;42455;51.660;5.824;2024-01-11T09:39:28;-1.9;81.5
45383;DHT22;42455;51.660;5.824;2024-01-11T09:44:34;-1.7;82.0
45383;DHT22;42455;51.660;5.824;2024-01-11T09:49:41;-1.6;82.0
45383;DHT22;42455;51.660;5.824;2024-01-11T09:54:46;-1.5;82.0
45383;DHT22;42455;51.660;5.824;2024-01-11T09:59:57;-1.3;82.0
45383;DHT22;42455;51.660;5.824;2024-01-11T10:04:59;-1.1;82.0
45383;DHT22;42455;51.660;5.824;2024-01-11T10:10:05;-1.0;82.5
45383;DHT22;42455;51.660;5.824;2024-01-11T10:15:12;-0.8;82.5
45383;DHT22;42455;51.660;5.824;2024-01-11T10:20:17;-0.6;82.5
45383;DHT22;42455;51.660;5.824;2024-01-11T10:25:24;-0.4;82.5
45383;DHT22;42455;51.660;5.824;2024-01-11T10:30:30;-0.2;82.5
45383;DHT22;42455;51.660;5.824;2024-01-11T10:35:36;0.0;82.0
45383;DHT22;42455;51.660;5.824;2024-01-11T10:40:42;0.2;82.0
45383;DHT22;42455;51.660;5.824;2024-01-11T10:45:48;0.3;82.0
45383;DHT22;42455;51.660;5.824;2024-01-11T10:51:05;0.4;81.5
45383;DHT22;42455;51.660;5.824;2024-01-11T10:56:03;0.6;81.5
45383;DHT22;42455;51.660;5.824;2024-01-11T11:01:07;0.7;81.0
45383;DHT22;42455;51.660;5.824;2024-01-11T11:06:13;0.9;81.0
45383;DHT22;42455;51.660;5.824;2024-01-11T11:11:20;1.0;81.0
45383;DHT22;42455;51.660;5.824;2024-01-11T11:21:32;1.2;80.5
45383;DHT22;42455;51.660;5.824;2024-01-11T11:26:38;1.3;80.5
45383;DHT22;42455;51.660;5.824;2024-01-11T11:31:45;1.5;80.5
45383;DHT22;42455;51.660;5.824;2024-01-11T11:36:50;1.6;80.0
45383;DHT22;42455;51.660;5.824;2024-01-11T11:41:57;1.7;80.0
45383;DHT22;42455;51.660;5.824;2024-01-11T11:47:18;1.8;80.0
45383;DHT22;42455;51.660;5.824;2024-01-11T11:52:14;1.9;80.0
45383;DHT22;42455;51.660;5.824;2024-01-11T11:57:17;2.0;79.5
45383;DHT22;42455;51.660;5.824;2024-01-11T12:02:22;2.2;79.5
45383;DHT22;42455;51.660;5.824;2024-01-11T12:07:28;2.3;79.5
45383;DHT22;42455;51.660;5.824;2024-01-11T12:12:34;2.4;79.5
45383;DHT22;42455;51.660;5.824;2024-01-11T12:17:40;2.5;79.0
45383;DHT22;42455;51.660;5.824;2024-01-11T12:22:47;2.6;79.0
45383;DHT22;42455;51.660;5.824;2024-01-11T12:27:53;2.7;79.0
45383;DHT22;42455;51.660;5.824;2024-01-11T12:32:59;2.8;78.5
45383;DHT22;42455;51.660;5.824;2024-01-11T12:38:05;2.8;78.0
45383;DHT22;42455;51.660;5.824;2024-01-11T12:43:12;2.8;78.0
45383;DHT22;42455;51.660;5.824;2024-01-11T12:48:16;2.9;78.5
45383;DHT22;42455;51.660;5.824;2024-01-11T12:53:23;2.9;79.0
45383;DHT22;42455;51.660;5.824;2024-01-11T12:58:29;2.9;79.0
45383;DHT22;42455;51.660;5.824;2024-01-11T13:03:35;3.0;79.5
45383;DHT22;42455;51.660;5.824;2024-01-11T13:08:41;3.0;79.0
45383;DHT22;42455;51.660;5.824;2024-01-11T13:13:47;2.9;79.5
45383;DHT22;42455;51.660;5.824;2024-01-11T13:18:54;2.8;79.5
45383;DHT22;42455;51.660;5.824;2024-01-11T13:24:00;2.7;80.0
45383;DHT22;42455;51.660;5.824;2024-01-11T13:29:06;2.6;80.5
45383;DHT22;42455;51.660;5.824;2024-01-11T13:34:12;2.6;81.0
45383;DHT22;42455;51.660;5.824;2024-01-11T13:39:18;2.5;81.5
45383;DHT22;42455;51.660;5.824;2024-01-11T13:44:25;2.5;82.0
45383;DHT22;42455;51.660;5.824;2024-01-11T13:49:31;2.5;82.0
45383;DHT22;42455;51.660;5.824;2024-01-11T13:54:37;2.5;82.5
45383;DHT22;42455;51.660;5.824;2024-01-11T13:59:43;2.5;83.0
45383;DHT22;42455;51.660;5.824;2024-01-11T14:04:49;2.5;83.0
45383;DHT22;42455;51.660;5.824;2024-01-11T14:09:56;2.5;83.5
45383;DHT22;42455;51.660;5.824;2024-01-11T14:15:02;2.6;83.5
45383;DHT22;42455;51.660;5.824;2024-01-11T14:20:08;2.6;83.5
45383;DHT22;42455;51.660;5.824;2024-01-11T14:25:15;2.6;84.0
45383;DHT22;42455;51.660;5.824;2024-01-11T14:30:20;2.6;84.0
45383;DHT22;42455;51.660;5.824;2024-01-11T14:35:27;2.7;84.5
45383;DHT22;42455;51.660;5.824;2024-01-11T14:40:33;2.7;84.5
45383;DHT22;42455;51.660;5.824;2024-01-11T14:45:39;2.8;84.5
45383;DHT22;42455;51.660;5.824;2024-01-11T14:50:45;2.8;84.5
45383;DHT22;42455;51.660;5.824;2024-01-11T14:55:52;2.8;84.5
45383;DHT22;42455;51.660;5.824;2024-01-11T15:00:58;2.8;85.0
45383;DHT22;42455;51.660;5.824;2024-01-11T15:06:04;2.8;85.0
45383;DHT22;42455;51.660;5.824;2024-01-11T15:11:10;2.8;85.0
45383;DHT22;42455;51.660;5.824;2024-01-11T15:16:16;2.8;85.0
45383;DHT22;42455;51.660;5.824;2024-01-11T15:21:22;2.8;85.5
45383;DHT22;42455;51.660;5.824;2024-01-11T15:26:29;2.9;85.5
45383;DHT22;42455;51.660;5.824;2024-01-11T15:31:35;2.9;85.5
45383;DHT22;42455;51.660;5.824;2024-01-11T15:36:41;2.9;85.5
45383;DHT22;42455;51.660;5.824;2024-01-11T15:41:47;2.9;85.5
45383;DHT22;42455;51.660;5.824;2024-01-11T15:46:54;2.8;86.0
45383;DHT22;42455;51.660;5.824;2024-01-11T15:52:00;2.9;86.0
45383;DHT22;42455;51.660;5.824;2024-01-11T15:57:06;2.9;86.0
45383;DHT22;42455;51.660;5.824;2024-01-11T16:02:12;2.9;86.0
45383;DHT22;42455;51.660;5.824;2024-01-11T16:07:18;2.9;86.5
45383;DHT22;42455;51.660;5.824;2024-01-11T16:12:25;2.9;86.5
45383;DHT22;42455;51.660;5.824;2024-01-11T16:17:31;2.9;86.5
45383;DHT22;42455;51.660;5.824;2024-01-11T16:22:37;2.9;86.5
45383;DHT22;42455;51.660;5.824;2024-01-11T16:27:43;2.9;86.5
45383;DHT22;42455;51.660;5.824;2024-01-11T16:32:49;2.9;87.0
45383;DHT22;42455;51.660;5.824;2024-01-11T16:37:56;2.9;87.0
45383;DHT22;42455;51.660;5.824;2024-01-11T16:43:02;2.9;87.0
45383;DHT22;42455;51.660;5.824;2024-01-11T16:48:08;2.9;87.0
45383;DHT22;42455;51.660;5.824;2024-01-11T16:53:14;2.9;87.0
45383;DHT22;42455;51.660;5.824;2024-01-11T16:58:21;2.9;87.5
45383;DHT22;42455;51.660;5.824;2024-01-11T17:03:27;2.9;87.5
45383;DHT22;42455;51.660;5.824;2024-01-11T17:08:34;2.9;87.5
45383;DHT22;42455;51.660;5.824;2024-01-11T17:13:39;2.9;88.0
45383;DHT22;42455;51.660;5.824;2024-01-11T17:18:45;2.9;88.0
45383;DHT22;42455;51.660;5.824;2024-01-11T17:23:52;2.9;88.0
45383;DHT22;42455;51.660;5.824;2024-01-11T17:28:58;2.9;88.0
45383;DHT22;42455;51.660;5.824;2024-01-11T17:34:04;2.9;88.0
45383;DHT22;42455;51.660;5.824;2024-01-11T17:39:10;2.9;88.5
45383;DHT22;42455;51.660;5.824;2024-01-11T17:44:16;2.9;88.5
45383;DHT22;42455;51.660;5.824;2024-01-11T17:49:23;2.9;88.5
45383;DHT22;42455;51.660;5.824;2024-01-11T17:54:29;2.9;88.5
45383;DHT22;42455;51.660;5.824;2024-01-11T17:59:35;2.9;88.5
45383;DHT22;42455;51.660;5.824;2024-01-11T18:04:41;2.9;88.5
45383;DHT22;42455;51.660;5.824;2024-01-11T18:09:46;2.9;89.0
45383;DHT22;42455;51.660;5.824;2024-01-11T18:14:53;2.9;89.0
45383;DHT22;42455;51.660;5.824;2024-01-11T18:19:59;2.9;89.0
45383;DHT22;42455;51.660;5.824;2024-01-11T18:25:05;2.9;89.0
45383;DHT22;42455;51.660;5.824;2024-01-11T18:30:12;2.9;89.0
45383;DHT22;42455;51.660;5.824;2024-01-11T18:35:18;2.9;89.5
45383;DHT22;42455;51.660;5.824;2024-01-11T18:40:24;2.9;89.5
45383;DHT22;42455;51.660;5.824;2024-01-11T18:45:30;2.9;89.5
45383;DHT22;42455;51.660;5.824;2024-01-11T18:50:36;2.9;89.5
45383;DHT22;42455;51.660;5.824;2024-01-11T18:55:42;2.9;89.5
45383;DHT22;42455;51.660;5.824;2024-01-11T19:00:49;2.9;90.0
45383;DHT22;42455;51.660;5.824;2024-01-11T19:05:55;2.9;90.0
45383;DHT22;42455;51.660;5.824;2024-01-11T19:11:02;2.9;90.0
45383;DHT22;42455;51.660;5.824;2024-01-11T19:16:07;2.9;90.0
45383;DHT22;42455;51.660;5.824;2024-01-11T19:21:13;2.9;90.0
45383;DHT22;42455;51.660;5.824;2024-01-11T19:26:20;2.9;90.0
45383;DHT22;42455;51.660;5.824;2024-01-11T19:31:26;2.9;90.0
45383;DHT22;42455;51.660;5.824;2024-01-11T19:36:36;2.9;90.0
45383;DHT22;42455;51.660;5.824;2024-01-11T19:41:39;2.9;90.0
45383;DHT22;42455;51.660;5.824;2024-01-11T19:46:44;2.9;90.5
45383;DHT22;42455;51.660;5.824;2024-01-11T19:51:50;2.9;90.5
45383;DHT22;42455;51.660;5.824;2024-01-11T19:56:57;2.9;90.5
45383;DHT22;42455;51.660;5.824;2024-01-11T20:02:03;2.9;90.5
45383;DHT22;42455;51.660;5.824;2024-01-11T20:07:09;2.9;90.5
45383;DHT22;42455;51.660;5.824;2024-01-11T20:12:15;2.9;91.0
45383;DHT22;42455;51.660;5.824;2024-01-11T20:17:22;3.0;91.0
45383;DHT22;42455;51.660;5.824;2024-01-11T20:22:28;3.0;91.0
45383;DHT22;42455;51.660;5.824;2024-01-11T20:27:34;3.0;91.0
45383;DHT22;42455;51.660;5.824;2024-01-11T20:32:40;3.0;91.0
45383;DHT22;42455;51.660;5.824;2024-01-11T20:37:46;3.0;91.0
45383;DHT22;42455;51.660;5.824;2024-01-11T20:42:53;3.0;91.0
45383;DHT22;42455;51.660;5.824;2024-01-11T20:47:59;3.0;91.0
45383;DHT22;42455;51.660;5.824;2024-01-11T20:53:05;3.1;91.0
45383;DHT22;42455;51.660;5.824;2024-01-11T20:58:11;3.1;91.0
45383;DHT22;42455;51.660;5.824;2024-01-11T21:03:17;3.1;91.0
45383;DHT22;42455;51.660;5.824;2024-01-11T21:08:24;3.2;91.0
45383;DHT22;42455;51.660;5.824;2024-01-11T21:13:30;3.2;91.0
45383;DHT22;42455;51.660;5.824;2024-01-11T21:18:36;3.2;91.0
45383;DHT22;42455;51.660;5.824;2024-01-11T21:23:42;3.2;91.0
45383;DHT22;42455;51.660;5.824;2024-01-11T21:28:48;3.2;91.0
45383;DHT22;42455;51.660;5.824;2024-01-11T21:33:55;3.2;91.0
45383;DHT22;42455;51.660;5.824;2024-01-11T21:39:01;3.2;91.0
45383;DHT22;42455;51.660;5.824;2024-01-11T21:44:07;3.2;91.0
45383;DHT22;42455;51.660;5.824;2024-01-11T21:49:13;3.2;91.0
45383;DHT22;42455;51.660;5.824;2024-01-11T21:54:19;3.2;91.0
45383;DHT22;42455;51.660;5.824;2024-01-11T21:59:26;3.2;91.0
45383;DHT22;42455;51.660;5.824;2024-01-11T22:04:32;3.2;91.5
45383;DHT22;42455;51.660;5.824;2024-01-11T22:09:38;3.3;91.5
45383;DHT22;42455;51.660;5.824;2024-01-11T22:14:44;3.3;91.5
45383;DHT22;42455;51.660;5.824;2024-01-11T22:19:50;3.3;91.5
45383;DHT22;42455;51.660;5.824;2024-01-11T22:24:57;3.3;91.5
45383;DHT22;42455;51.660;5.824;2024-01-11T22:30:04;3.3;91.5
45383;DHT22;42455;51.660;5.824;2024-01-11T22:35:09;3.3;91.5
45383;DHT22;42455;51.660;5.824;2024-01-11T22:40:15;3.3;91.5
45383;DHT22;42455;51.660;5.824;2024-01-11T22:45:22;3.3;91.5
45383;DHT22;42455;51.660;5.824;2024-01-11T22:50:28;3.3;91.5
45383;DHT22;42455;51.660;5.824;2024-01-11T22:55:34;3.3;91.5
45383;DHT22;42455;51.660;5.824;2024-01-11T23:00:40;3.3;91.5
45383;DHT22;42455;51.660;5.824;2024-01-11T23:05:46;3.3;91.5
45383;DHT22;42455;51.660;5.824;2024-01-11T23:10:53;3.3;91.5
45383;DHT22;42455;51.660;5.824;2024-01-11T23:15:59;3.3;91.5
45383;DHT22;42455;51.660;5.824;2024-01-11T23:21:05;3.3;91.5
45383;DHT22;42455;51.660;5.824;2024-01-11T23:26:11;3.3;91.5
45383;DHT22;42455;51.660;5.824;2024-01-11T23:31:17;3.3;91.5
45383;DHT22;42455;51.660;5.824;2024-01-11T23:36:24;3.3;91.5
45383;DHT22;42455;51.660;5.824;2024-01-11T23:41:29;3.3;91.5
45383;DHT22;42455;51.660;5.824;2024-01-11T23:46:35;3.3;91.5
45383;DHT22;42455;51.660;5.824;2024-01-11T23:51:41;3.3;91.5
45383;DHT22;42455;51.660;5.824;2024-01-11T23:56:48;3.3;91.5
